Archer, Illinois
Current Conditions -  °F | °C
As of 10:52 AM on Friday 24 Oct 2014 (Local Time) from KSPI Reporting Station
Haze Haze  
Wind Chill: 56°   Ceiling: 200
Heat Index: 56°   Visibility: 1.5mi
Dew Point: 55°   Wind: 5mph
Humidity: 97%   Direction: 210°SSW
Pressure: 30.11"   Gusts: NA
Location:  39.854°N, 89.6295°W
Report Text: KSPI 241552Z 21004KT 1 1/2SM R04/6000VP6000FT BR OVC002 13/13 A3011 RMK AO2 SLP195 T01330128
Loading
Personal Weather Stations






























Interactive Weather Map
Tropical Storm Tracking
New forecast layout! Learn more

10-Day Weather Forecast

Advertisements
Track Severe Weather on mobile